createdAt,value
2023-05-06T00:02:44.644Z,95633.47
2023-05-06T00:39:21.239Z,95616.31
2023-05-06T00:57:12.567Z,95604.59
2023-05-06T00:59:58.645Z,95606.19
2023-05-06T01:02:47.447Z,95590.56
2023-05-06T01:28:38.709Z,95602.50
2023-05-06T01:31:42.322Z,95604.72
2023-05-06T01:34:33.724Z,95598.63
2023-05-06T01:37:32.644Z,95599.16
2023-05-06T01:41:50.519Z,95606.19
2023-05-06T02:21:38.747Z,95604.94
2023-05-06T02:24:25.180Z,95604.94
2023-05-06T02:27:11.361Z,95614.38
2023-05-06T02:29:57.383Z,95616.94
2023-05-06T02:33:17.391Z,95619.38
2023-05-06T02:37:32.798Z,95618.44
2023-05-06T02:40:20.757Z,95613.19
2023-05-06T02:43:06.910Z,95615.09
2023-05-06T02:45:53.871Z,95613.34
2023-05-06T02:48:39.735Z,95626.44
2023-05-06T02:51:25.556Z,95622.81
2023-05-06T02:54:11.790Z,95621.84
2023-05-06T02:56:57.885Z,95611.16
2023-05-06T02:59:43.798Z,95616.59
2023-05-06T03:02:29.416Z,95622.00
2023-05-06T03:05:16.046Z,95621.56
2023-05-06T03:08:02.606Z,95620.13
2023-05-06T03:10:50.444Z,95628.75
2023-05-06T03:13:38.368Z,95623.81
2023-05-06T03:16:24.703Z,95628.91
2023-05-06T03:19:13.673Z,95632.75
2023-05-06T03:22:01.678Z,95622.06
2023-05-06T03:24:50.596Z,95625.09
2023-05-06T03:27:36.893Z,95627.19
2023-05-06T03:30:29.164Z,95616.97
2023-05-06T03:33:18.671Z,95627.69
2023-05-06T03:36:05.696Z,95626.25
2023-05-06T03:38:52.825Z,95633.09
2023-05-06T03:41:38.930Z,95634.53
2023-05-06T03:44:32.303Z,95624.34
2023-05-06T03:47:25.896Z,95621.16
2023-05-06T03:50:12.029Z,95624.97
2023-05-06T03:52:58.753Z,95631.22
2023-05-06T03:55:47.186Z,95640.63
2023-05-06T03:58:33.653Z,95642.88
2023-05-06T04:01:21.791Z,95640.94
2023-05-06T04:04:08.259Z,95640.94
2023-05-06T04:06:54.688Z,95635.03
2023-05-06T04:09:40.992Z,95642.38
2023-05-06T04:12:28.071Z,95637.72
2023-05-06T04:15:14.422Z,95643.50
2023-05-06T04:18:01.770Z,95639.50
2023-05-06T04:20:48.656Z,95636.75
2023-05-06T04:23:36.056Z,95639.97
2023-05-06T04:26:23.638Z,95639.31
2023-05-06T04:29:09.712Z,95648.88
2023-05-06T04:32:03.725Z,95651.59
2023-05-06T04:34:53.833Z,95656.88
2023-05-06T04:37:39.938Z,95657.81
2023-05-06T04:40:30.899Z,95656.53
2023-05-06T04:43:16.559Z,95647.25
2023-05-06T04:46:03.885Z,95658.41
2023-05-06T04:48:52.693Z,95652.34
2023-05-06T04:51:39.936Z,95651.66
2023-05-06T04:54:26.092Z,95657.59
2023-05-06T04:57:12.100Z,95657.41
2023-05-06T05:00:00.435Z,95655.81
2023-05-06T05:02:47.128Z,95659.94
2023-05-06T05:05:35.720Z,95647.97
2023-05-06T05:08:24.012Z,95658.66
2023-05-06T05:11:11.049Z,95660.25
2023-05-06T05:13:59.450Z,95654.31
2023-05-06T05:16:46.878Z,95661.81
2023-05-06T05:19:33.679Z,95657.50
2023-05-06T05:22:20.217Z,95657.63
2023-05-06T05:25:08.166Z,95662.56
2023-05-06T05:27:55.543Z,95652.03
2023-05-06T05:30:41.309Z,95658.09
2023-05-06T05:33:31.225Z,95667.63
2023-05-06T05:36:17.705Z,95666.22
2023-05-06T05:39:06.027Z,95667.16
2023-05-06T05:41:59.401Z,95670.34
2023-05-06T05:44:46.378Z,95665.84
2023-05-06T05:47:32.254Z,95673.16
2023-05-06T05:50:18.921Z,95662.75
2023-05-06T05:53:05.716Z,95660.63
2023-05-06T05:55:54.177Z,95662.53
2023-05-06T05:58:40.334Z,95670.16
2023-05-06T06:01:26.789Z,95666.31
2023-05-06T06:04:12.862Z,95667.25
2023-05-06T06:06:58.824Z,95669.75
2023-05-06T06:09:46.950Z,95667.28
2023-05-06T06:12:34.681Z,95674.81
2023-05-06T06:15:22.206Z,95677.34
2023-05-06T06:18:10.552Z,95681.44
2023-05-06T06:20:58.240Z,95676.94
2023-05-06T06:23:44.598Z,95669.25
2023-05-06T06:26:30.841Z,95671.75
2023-05-06T06:29:18.715Z,95667.72
2023-05-06T06:32:06.481Z,95665.09
2023-05-06T06:34:52.743Z,95659.78
2023-05-06T06:37:38.945Z,95672.53
2023-05-06T06:40:24.707Z,95670.28
2023-05-06T06:43:10.736Z,95662.75
2023-05-06T06:46:15.841Z,95665.56
2023-05-06T06:49:02.008Z,95661.53
2023-05-06T06:51:47.895Z,95667.88
2023-05-06T06:54:34.121Z,95663.38
2023-05-06T06:57:21.044Z,95669.28
2023-05-06T07:00:07.623Z,95661.22
2023-05-06T07:02:54.083Z,95665.78
2023-05-06T07:05:40.078Z,95671.81
2023-05-06T07:08:26.000Z,95664.09
2023-05-06T07:11:14.393Z,95662.78
2023-05-06T07:14:03.017Z,95666.41
2023-05-06T07:16:51.376Z,95654.34
2023-05-06T07:19:37.835Z,95660.72
2023-05-06T07:22:23.599Z,95667.22
2023-05-06T07:25:10.005Z,95665.41
2023-05-06T07:27:56.457Z,95668.25
2023-05-06T07:30:42.686Z,95660.06
2023-05-06T07:33:28.970Z,95647.13
2023-05-06T07:36:15.379Z,95656.00
2023-05-06T07:39:01.835Z,95669.50
2023-05-06T07:41:47.900Z,95659.41
2023-05-06T07:44:34.169Z,95658.03
2023-05-06T07:47:28.789Z,95657.34
2023-05-06T07:50:15.284Z,95653.50
2023-05-06T07:53:01.796Z,95666.25
2023-05-06T07:55:47.616Z,95662.38
2023-05-06T07:58:33.432Z,95650.78
2023-05-06T08:01:19.674Z,95662.38
2023-05-06T08:04:06.446Z,95660.56
2023-05-06T08:06:53.467Z,95663.06
2023-05-06T08:09:39.561Z,95654.41
2023-05-06T08:12:25.582Z,95661.22
2023-05-06T08:15:11.777Z,95664.88
2023-05-06T08:18:02.157Z,95668.28
2023-05-06T08:20:53.278Z,95663.69
2023-05-06T08:23:39.301Z,95675.75
2023-05-06T08:26:25.041Z,95663.44
2023-05-06T08:29:10.845Z,95650.59
2023-05-06T08:31:57.300Z,95655.22
2023-05-06T08:34:43.211Z,95654.63
2023-05-06T08:37:30.692Z,95649.28
2023-05-06T08:40:21.908Z,95648.69
2023-05-06T08:43:13.356Z,95648.91
2023-05-06T08:45:59.623Z,95635.88
2023-05-06T08:48:49.966Z,95640.50
2023-05-06T08:51:40.637Z,95644.31
2023-05-06T08:54:39.032Z,95617.84
2023-05-06T08:57:30.138Z,95611.16
2023-05-06T09:00:17.596Z,95626.16
2023-05-06T09:03:03.968Z,95624.13
2023-05-06T09:05:51.665Z,95624.38
2023-05-06T09:08:37.351Z,95618.25
2023-05-06T09:11:29.749Z,95615.88
2023-05-06T09:14:17.828Z,95627.66
2023-05-06T09:17:03.960Z,95629.44
2023-05-06T09:19:54.309Z,95624.47
2023-05-06T09:22:41.093Z,95617.94
2023-05-06T09:25:28.417Z,95623.31
2023-05-06T09:28:14.611Z,95621.50
2023-05-06T09:31:01.120Z,95611.94
2023-05-06T09:33:47.269Z,95605.91
2023-05-06T09:36:33.871Z,95566.97
2023-05-06T09:39:26.573Z,95588.34
2023-05-06T09:42:15.109Z,95606.53
2023-05-06T09:45:04.501Z,95602.78
2023-05-06T09:47:56.087Z,95606.88
2023-05-06T09:50:50.799Z,95585.81
2023-05-06T09:53:37.400Z,95594.66
2023-05-06T09:56:24.006Z,95591.63
2023-05-06T09:59:11.454Z,95588.25
2023-05-06T10:01:59.324Z,95584.09
2023-05-06T10:04:46.654Z,95588.81
2023-05-06T10:07:33.133Z,95599.97
2023-05-06T10:10:19.412Z,95589.81
2023-05-06T10:13:05.407Z,95588.81
2023-05-06T10:15:51.790Z,95581.41
2023-05-06T10:18:39.258Z,95572.91
2023-05-06T10:21:27.556Z,95579.31
2023-05-06T10:24:19.386Z,95569.25
2023-05-06T10:27:06.596Z,95568.25
2023-05-06T10:30:00.491Z,95571.22
2023-05-06T10:32:46.772Z,95572.94
2023-05-06T10:35:53.024Z,95566.84
2023-05-06T10:38:43.893Z,95555.13
2023-05-06T10:41:30.816Z,95549.31
2023-05-06T10:44:16.665Z,95552.88
2023-05-06T10:47:02.562Z,95545.06
2023-05-06T10:50:21.077Z,95549.91
2023-05-06T10:53:07.296Z,95546.00
2023-05-06T10:56:09.053Z,95555.56
2023-05-06T10:58:55.942Z,95543.50
2023-05-06T11:01:44.130Z,95540.84
2023-05-06T11:04:31.331Z,95541.31
2023-05-06T11:07:23.068Z,95543.41
2023-05-06T11:10:11.461Z,95538.78
2023-05-06T11:12:57.808Z,95532.56
2023-05-06T11:15:47.384Z,95533.44
2023-05-06T11:18:36.997Z,95528.84
2023-05-06T11:21:33.405Z,95532.84
2023-05-06T11:24:25.904Z,95536.06
2023-05-06T11:27:19.578Z,95519.59
2023-05-06T11:30:06.631Z,95522.03
2023-05-06T11:32:54.273Z,95525.25
2023-05-06T11:35:39.968Z,95516.63
2023-05-06T11:38:26.947Z,95518.22
2023-05-06T11:41:13.795Z,95519.88
2023-05-06T11:43:59.750Z,95516.78
2023-05-06T11:46:45.969Z,95512.91
2023-05-06T11:49:37.718Z,95509.81
2023-05-06T11:52:23.549Z,95510.66
2023-05-06T11:55:12.458Z,95510.69
2023-05-06T11:57:58.578Z,95502.13
2023-05-06T12:00:51.769Z,95504.50
2023-05-06T12:03:37.918Z,95496.66
2023-05-06T12:06:35.201Z,95506.94
2023-05-06T12:09:22.752Z,95490.38
2023-05-06T12:12:10.936Z,95502.19
2023-05-06T12:14:57.134Z,95495.06
2023-05-06T12:17:43.440Z,95493.03
2023-05-06T12:20:29.609Z,95487.06
2023-05-06T12:23:16.508Z,95499.66
2023-05-06T12:26:04.658Z,95487.00
2023-05-06T12:29:07.964Z,95508.75
2023-05-06T12:32:10.570Z,95498.09
2023-05-06T12:34:56.786Z,95501.31
2023-05-06T12:37:42.701Z,95487.88
2023-05-06T12:40:28.947Z,95488.63
2023-05-06T12:43:14.777Z,95488.59
2023-05-06T12:46:05.918Z,95486.91
2023-05-06T12:49:02.658Z,95491.81
2023-05-06T12:52:08.624Z,95480.88
2023-05-06T12:54:54.907Z,95489.16
2023-05-06T12:57:41.408Z,95485.41
2023-05-06T13:00:27.703Z,95476.94
2023-05-06T13:03:13.979Z,95467.59
2023-05-06T13:06:00.272Z,95475.81
2023-05-06T13:08:46.367Z,95479.41
2023-05-06T13:11:33.312Z,95478.16
2023-05-06T13:14:20.804Z,95479.44
2023-05-06T13:17:07.020Z,95479.38
2023-05-06T13:19:53.487Z,95481.59
2023-05-06T13:22:53.294Z,95473.41
2023-05-06T13:25:55.904Z,95474.81
2023-05-06T13:28:55.458Z,95471.22
2023-05-06T13:31:41.231Z,95467.31
2023-05-06T13:34:27.257Z,95466.59
2023-05-06T13:37:13.335Z,95460.75
2023-05-06T13:39:59.023Z,95467.00
2023-05-06T13:42:45.080Z,95468.34
2023-05-06T13:45:30.960Z,95470.41
2023-05-06T13:48:17.879Z,95470.34
2023-05-06T13:51:04.220Z,95444.59
2023-05-06T13:53:51.892Z,95446.63
2023-05-06T13:56:37.894Z,95452.09
2023-05-06T13:59:24.143Z,95456.03
2023-05-06T14:02:11.667Z,95448.94
2023-05-06T14:04:59.103Z,95456.94
2023-05-06T14:07:45.945Z,95458.31
2023-05-06T14:10:32.013Z,95451.28
2023-05-06T14:13:17.734Z,95453.59
2023-05-06T14:16:03.795Z,95453.09
2023-05-06T14:18:49.686Z,95459.03
2023-05-06T14:21:38.862Z,95464.09
2023-05-06T14:24:25.831Z,95469.63
2023-05-06T14:27:15.249Z,95463.56
2023-05-06T14:30:08.220Z,95466.59
2023-05-06T14:32:56.246Z,95463.19
2023-05-06T14:35:42.917Z,95468.91
2023-05-06T14:38:28.676Z,95468.28
2023-05-06T14:41:14.539Z,95468.47
2023-05-06T14:44:00.656Z,95459.03
2023-05-06T14:46:46.741Z,95456.41
2023-05-06T14:49:32.790Z,95474.25
2023-05-06T14:52:18.912Z,95471.13
2023-05-06T14:55:06.879Z,95473.19
2023-05-06T14:57:53.624Z,95475.97
2023-05-06T15:00:39.293Z,95470.09
2023-05-06T15:03:28.282Z,95468.97
2023-05-06T15:06:14.463Z,95467.44
2023-05-06T15:09:02.131Z,95469.06
2023-05-06T15:11:48.207Z,95474.56
2023-05-06T15:14:34.210Z,95473.41
2023-05-06T15:17:21.241Z,95467.47
2023-05-06T15:20:08.736Z,95473.03
2023-05-06T15:22:54.929Z,95474.63
2023-05-06T15:25:41.040Z,95478.56
2023-05-06T15:28:27.236Z,95471.47
2023-05-06T15:31:14.719Z,95470.66
2023-05-06T15:34:02.896Z,95478.53
2023-05-06T15:36:53.297Z,95475.00
2023-05-06T15:39:39.558Z,95470.66
2023-05-06T15:42:25.845Z,95477.31
2023-05-06T15:45:12.361Z,95472.19
2023-05-06T15:47:58.302Z,95474.94
2023-05-06T15:50:44.273Z,95477.66
2023-05-06T15:53:30.094Z,95470.56
2023-05-06T15:56:18.842Z,95476.84
2023-05-06T15:59:05.976Z,95472.13
2023-05-06T16:02:25.736Z,95459.88
2023-05-06T16:05:04.173Z,95464.22
2023-05-06T16:07:50.489Z,95460.66
2023-05-06T16:10:36.693Z,95454.78
2023-05-06T16:13:22.923Z,95451.59
2023-05-06T16:16:08.819Z,95465.00
2023-05-06T16:18:54.757Z,95461.88
2023-05-06T16:21:40.364Z,95464.22
2023-05-06T16:24:26.294Z,95473.66
2023-05-06T16:27:12.295Z,95476.00
2023-05-06T16:29:58.293Z,95474.00
2023-05-06T16:32:48.283Z,95474.34
2023-05-06T16:35:34.492Z,95483.81
2023-05-06T16:38:20.719Z,95479.81
2023-05-06T16:41:07.173Z,95478.25
2023-05-06T16:43:53.070Z,95479.00
2023-05-06T16:46:39.053Z,95482.53
2023-05-06T16:49:28.114Z,95485.28
2023-05-06T16:52:14.059Z,95477.75
2023-05-06T16:54:59.753Z,95489.94
2023-05-06T16:58:59.531Z,95484.41
2023-05-06T17:01:45.623Z,95470.19
2023-05-06T17:04:31.788Z,95478.44
2023-05-06T17:07:17.904Z,95483.50
2023-05-06T17:10:03.752Z,95483.81
2023-05-06T17:12:49.802Z,95485.75
2023-05-06T17:15:35.818Z,95493.59
2023-05-06T17:18:21.753Z,95483.28
2023-05-06T17:21:09.006Z,95491.88
2023-05-06T17:23:55.019Z,95495.81
2023-05-06T17:26:41.860Z,95502.81
2023-05-06T17:29:28.410Z,95490.19
2023-05-06T17:32:14.385Z,95496.44
2023-05-06T17:35:00.557Z,95497.91
2023-05-06T17:37:46.618Z,95493.91
2023-05-06T17:40:32.845Z,95485.16
2023-05-06T17:43:19.215Z,95497.31
2023-05-06T17:46:06.858Z,95504.31
2023-05-06T17:48:53.316Z,95510.91
2023-05-06T17:51:41.053Z,95502.91
2023-05-06T17:54:27.150Z,95518.19
2023-05-06T17:57:12.987Z,95511.41
2023-05-06T17:59:59.113Z,95529.06
2023-05-06T18:02:45.915Z,95527.41
2023-05-06T18:05:32.452Z,95525.34
2023-05-06T18:08:18.644Z,95533.22
2023-05-06T18:11:04.950Z,95535.44
2023-05-06T18:13:51.521Z,95540.09
2023-05-06T18:16:38.621Z,95532.97
2023-05-06T18:19:24.674Z,95536.75
2023-05-06T18:22:10.505Z,95545.31
2023-05-06T18:24:56.672Z,95544.47
2023-05-06T18:27:42.508Z,95549.88
2023-05-06T18:30:28.624Z,95552.94
2023-05-06T18:33:14.940Z,95555.94
2023-05-06T18:36:01.735Z,95558.63
2023-05-06T18:38:48.100Z,95552.59
2023-05-06T18:41:34.228Z,95561.13
2023-05-06T18:44:19.881Z,95562.63
2023-05-06T18:47:05.923Z,95567.25
2023-05-06T18:49:53.438Z,95568.72
2023-05-06T18:52:39.138Z,95559.44
2023-05-06T18:55:24.988Z,95571.56
2023-05-06T18:58:11.041Z,95573.41
2023-05-06T19:00:57.343Z,95579.19
2023-05-06T19:03:43.534Z,95581.31
2023-05-06T19:06:29.476Z,95589.81
2023-05-06T19:09:18.193Z,95595.09
2023-05-06T19:12:04.752Z,95596.13
2023-05-06T19:14:50.751Z,95596.38
2023-05-06T19:17:37.004Z,95604.50
2023-05-06T19:20:23.300Z,95607.09
2023-05-06T19:23:09.745Z,95608.97
2023-05-06T19:25:55.906Z,95602.44
2023-05-06T19:28:41.640Z,95613.84
2023-05-06T19:31:27.325Z,95608.63
2023-05-06T19:34:13.206Z,95602.56
2023-05-06T19:36:59.792Z,95620.59
2023-05-06T19:39:46.624Z,95614.25
2023-05-06T19:42:34.276Z,95616.84
2023-05-06T19:45:23.181Z,95620.28
2023-05-06T19:48:10.754Z,95609.88
2023-05-06T19:50:56.608Z,95618.38
2023-05-06T19:53:42.685Z,95623.41
2023-05-06T19:56:28.632Z,95617.34
2023-05-06T19:59:14.552Z,95624.69
2023-05-06T20:02:01.933Z,95617.44
2023-05-06T20:04:47.926Z,95621.69
2023-05-06T20:07:33.984Z,95621.09
2023-05-06T20:10:21.020Z,95615.03
2023-05-06T20:13:07.217Z,95625.13
2023-05-06T20:15:54.626Z,95621.13
2023-05-06T20:18:40.761Z,95628.00
2023-05-06T20:21:26.437Z,95623.88
2023-05-06T20:24:12.936Z,95624.59
2023-05-06T20:26:59.257Z,95618.56
2023-05-06T20:29:46.008Z,95616.53
2023-05-06T20:32:32.338Z,95615.66
2023-05-06T20:35:18.152Z,95613.53
2023-05-06T20:38:04.407Z,95615.38
2023-05-06T20:40:50.415Z,95594.03
2023-05-06T20:43:36.576Z,95603.81
2023-05-06T20:46:22.617Z,95596.22
2023-05-06T20:49:08.593Z,95601.78
2023-05-06T20:51:54.890Z,95596.13
2023-05-06T20:54:44.309Z,95589.09
2023-05-06T20:57:30.598Z,95603.16
2023-05-06T21:00:16.719Z,95603.00
2023-05-06T21:03:03.063Z,95606.84
2023-05-06T21:05:49.152Z,95608.44
2023-05-06T21:08:35.421Z,95620.00
2023-05-06T21:11:21.858Z,95616.72
2023-05-06T21:14:07.916Z,95618.75
2023-05-06T21:16:53.989Z,95622.09
2023-05-06T21:19:39.872Z,95627.00
2023-05-06T21:22:26.067Z,95625.22
2023-05-06T21:25:13.298Z,95630.56
2023-05-06T21:28:03.324Z,95628.44
2023-05-06T21:30:50.747Z,95620.00
2023-05-06T21:33:36.927Z,95636.41
2023-05-06T21:36:23.064Z,95615.38
2023-05-06T21:39:12.116Z,95635.28
2023-05-06T21:41:58.273Z,95633.81
2023-05-06T21:44:44.520Z,95635.56
2023-05-06T21:47:30.784Z,95636.81
2023-05-06T21:50:19.025Z,95639.66
2023-05-06T21:53:04.789Z,95637.69
2023-05-06T21:55:51.031Z,95641.22
2023-05-06T21:58:36.874Z,95640.50
2023-05-06T22:01:26.179Z,95646.41
2023-05-06T22:04:13.168Z,95661.19
2023-05-06T22:06:59.608Z,95659.84
2023-05-06T22:09:45.437Z,95646.63
2023-05-06T22:12:32.012Z,95653.69
2023-05-06T22:15:17.983Z,95641.63
2023-05-06T22:18:04.276Z,95651.06
2023-05-06T22:20:52.504Z,95653.19
2023-05-06T22:23:40.661Z,95650.00
2023-05-06T22:26:28.343Z,95641.94
2023-05-06T22:29:14.248Z,95648.19
2023-05-06T22:32:00.190Z,95641.56
2023-05-06T22:34:47.180Z,95648.38
2023-05-06T22:37:33.034Z,95653.03
2023-05-06T22:40:19.048Z,95649.22
2023-05-06T22:43:04.841Z,95657.72
2023-05-06T22:45:50.661Z,95651.72
2023-05-06T22:48:36.326Z,95656.38
2023-05-06T22:51:22.324Z,95646.78
2023-05-06T22:54:08.543Z,95645.06
2023-05-06T22:56:54.504Z,95649.69
2023-05-06T22:59:40.420Z,95645.72
2023-05-06T23:02:26.578Z,95651.16
2023-05-06T23:05:13.041Z,95651.16
2023-05-06T23:07:58.996Z,95649.66
2023-05-06T23:10:44.641Z,95647.84
2023-05-06T23:13:36.087Z,95667.25
2023-05-06T23:16:23.515Z,95649.06
2023-05-06T23:19:09.616Z,95656.22
2023-05-06T23:21:56.409Z,95666.97
2023-05-06T23:24:42.350Z,95659.03
2023-05-06T23:27:28.463Z,95662.22
2023-05-06T23:30:14.493Z,95654.22
2023-05-06T23:33:01.726Z,95648.78
2023-05-06T23:35:48.010Z,95657.41
2023-05-06T23:38:33.794Z,95639.91
2023-05-06T23:41:19.724Z,95642.16
2023-05-06T23:44:06.348Z,95656.22
2023-05-06T23:46:52.474Z,95650.53
2023-05-06T23:49:38.501Z,95651.75
2023-05-06T23:52:24.168Z,95644.78
2023-05-06T23:55:10.704Z,95640.94
2023-05-06T23:57:56.948Z,95637.31
